Terminal Aerodrome Forecast
Issued by NWS Charleston, WV

Current Version | Previous Version | Graphics & Text | Print | Product List | Glossary On
Versions: 1 2 3 4 5 6 7 8 9 10 11 12 13 14 15 16 17 18 19 20 21
000
FTUS41 KRLX 080304 AAA
TAFEKN
TAF AMD
KEKN 080304Z 0803/0824 00000KT P6SM FEW150
     FM080600 00000KT P6SM BKN100
     FM081300 26008KT P6SM BKN080
     FM081600 26010G18KT P6SM BKN060
     FM081700 27012G22KT P6SM SCT250
     FM081800 27013G23KT P6SM SCT050=

USA.gov is the U.S. government's official web portal to all federal, state and local government web resources and services.